Lynchburg, VA

06:23 EDT le 27 septembre 2016 (GMT -0400)
Concord Turnpike | | Change Station

Alt. 543 ft 37.40 °N, 79.11 °W | Updated 2 minutes ago

Light Rain
Pluie fine
67.1 ° F
Paraît 67.1 ° F
N
0.2
Vent Variable Vent de SO
Gusts 1.6 mph

Aujourd'hui
Haut(e) -- | Bas -- ° F
--% Risque de précip.
Hier
Haut(e) -- | Bas -- ° F
Precip. -- pouce
Pression 29.95 pouce
Visibilité 10.0 Miles terrestres
Nuages Nuages épars 300 ft
Nuages épars 5500 ft
Nuageux 11000 ft
Point de rosée 64 ° F
Humidité 90%
Précipitations 0.03 pouce
Profondeur de la couche neigeuse Non disponible.
7:09 AM 7:05 PM
Lune descendante, 12% visible
METAR KLYH 270954Z AUTO 24003KT 10SM -RA SCT003 SCT055 BKN110 18/18 A2997 RMK AO2 SLP140 P0014 T01830183
Pression 29.95 pouce
Visibilité 10.0 Miles terrestres
Nuages Nuages épars 300 ft
Nuages épars 5500 ft
Nuageux 11000 ft
Point de rosée 64 ° F
Humidité 90%
Précipitations 0.03 pouce
Profondeur de la couche neigeuse Non disponible.
7:09 AM 7:05 PM
Lune descendante, 12% visible
METAR KLYH 270954Z AUTO 24003KT 10SM -RA SCT003 SCT055 BKN110 18/18 A2997 RMK AO2 SLP140 P0014 T01830183

10-Day Weather Forecast

Almanac

Astronomie

Sep. 27, 2016 Lever Coucher
Temps réel
Crépuscule civil
Crépuscule nautique
Crépuscule astronomique
Lune
Durée de lumière visible
Longueur du jour
Tomorrow will be .
, % of the Moon is Illuminated

Extrêmes aujourd'hui

State Highs State Lows

Community

WunderPhotos

Upload Photos

1,942,057 Photos téléchargées !

WunderBlog® & News

Nearby

Qualité de l'air

  Qualité de l'air Indice de la qualité de l'air Polluant
Not available.

Épaisseur de neige

Station Depth Altitude

Activité sismique

Ville Distance Mag. Time & Date
Minimum magnitude displayed is 2.5.

Températures des eaux côtières

Lieu Température

Stations

Stations météo à proximité

Emplacement de la station Température Refroidissement éolien Point de rosée Humidité Vent Precip. Alt. Mise à jour Type
                   

Watches & Warnings

There are currently no watches in effect.